This is the latest recevied weather packets stored in our database for station/object OE-11365. If no packets are shown the sender has not sent any weather packets the latest 10 day(s).
| Time | Temp. | Humidity | Pressure | Rain* | Wind** | Luminosity | Snow |
|---|---|---|---|---|---|---|---|
| 1787668902 | 20° C | 71% | 1011.8 hPa | 0 mm | - | 190 W/m² | - |
| 1787668528 | 20° C | 72% | 1011.5 hPa | 0 mm | - | 183 W/m² | - |
| 1787667928 | 20° C | 71% | 1011.6 hPa | 0 mm | - | 177 W/m² | - |
| 1787667101 | 20° C | 71% | 1011.4 hPa | 0 mm | - | 209 W/m² | - |
| 1787666729 | 20° C | 71% | 1011.4 hPa | 0 mm | - | 399 W/m² | - |
| 1787666129 | 20° C | 72% | 1011.3 hPa | 0 mm | - | 504 W/m² | - |
| 1787665302 | 19.44° C | 72% | 1011.4 hPa | 0 mm | - | 399 W/m² | - |
| 1787664929 | 19.44° C | 73% | 1011.5 hPa | 0 mm | - | 209 W/m² | - |
| 1787664329 | 19.44° C | 73% | 1011.5 hPa | 0 mm | - | 471 W/m² | - |
| 1787663502 | 19.44° C | 75% | 1011.6 hPa | 0 mm | - | 595 W/m² | - |
| 1787663129 | 19.44° C | 77% | 1011.6 hPa | 0 mm | - | 562 W/m² | - |
| 1787662528 | 18.33° C | 76% | 1011.9 hPa | 0 mm | - | 334 W/m² | - |
| 1787661701 | 18.33° C | 77% | 1012 hPa | 0 mm | - | 281 W/m² | - |
| 1787661328 | 18.33° C | 78% | 1012.1 hPa | 0 mm | - | 320 W/m² | - |
| 1787660728 | 18.33° C | 80% | 1012.2 hPa | 0 mm | - | 314 W/m² | - |
| 1787660139 | 17.78° C | 79% | 1012.3 hPa | 0 mm | - | 222 W/m² | - |
| 1787659528 | 17.78° C | 80% | 1012.3 hPa | 0 mm | - | 275 W/m² | - |
| 1787658928 | 17.78° C | 81% | 1012.3 hPa | 0 mm | - | 334 W/m² | - |
| 1787658101 | 17.78° C | 81% | 1012.4 hPa | 0 mm | - | 327 W/m² | - |
| 1787657727 | 17.22° C | 84% | 1012.4 hPa | 0 mm | - | 314 W/m² | - |
| 1787657127 | 17.22° C | 82% | 1012.4 hPa | 0 mm | - | 294 W/m² | - |
| 1787654501 | 16.67° C | 86% | 1012.9 hPa | 0 mm | - | 196 W/m² | - |
| 1787654119 | 16.11° C | 87% | 1012.9 hPa | 0.51 mm | - | 170 W/m² | - |
| 1787652325 | 16.11° C | 88% | 1013.3 hPa | 1.52 mm | - | 262 W/m² | - |
| 1787651727 | 15.56° C | 92% | 1013.6 hPa | 2.03 mm | - | 262 W/m² | - |
* Rain latest hour (hover to see other rain measurements)
** Current wind speed in m/s (hover to see current wind gust speed)